createdAt,value
2023-05-17T00:02:16.703Z,6.72
2023-05-17T00:04:43.433Z,6.95
2023-05-17T00:07:11.574Z,7.28
2023-05-17T00:09:38.518Z,6.20
2023-05-17T00:12:05.780Z,6.60
2023-05-17T00:14:32.543Z,6.70
2023-05-17T00:16:59.855Z,6.28
2023-05-17T00:19:26.603Z,6.80
2023-05-17T00:21:53.417Z,6.75
2023-05-17T00:24:21.570Z,6.90
2023-05-17T00:26:48.389Z,6.40
2023-05-17T00:29:15.135Z,6.82
2023-05-17T00:31:41.853Z,5.85
2023-05-17T00:34:08.743Z,6.40
2023-05-17T00:36:35.450Z,5.72
2023-05-17T00:39:02.192Z,6.07
2023-05-17T00:41:30.474Z,5.80
2023-05-17T00:43:57.237Z,6.00
2023-05-17T00:46:23.962Z,6.00
2023-05-17T00:48:50.695Z,6.03
2023-05-17T00:51:17.421Z,6.30
2023-05-17T00:53:44.091Z,5.72
2023-05-17T00:56:10.788Z,5.65
2023-05-17T00:58:38.987Z,6.30
2023-05-17T01:01:05.733Z,6.22
2023-05-17T01:03:32.506Z,6.32
2023-05-17T01:05:59.611Z,6.72
2023-05-17T01:08:26.329Z,6.22
2023-05-17T01:10:54.598Z,6.55
2023-05-17T01:13:24.534Z,7.45
2023-05-17T01:15:57.000Z,7.93
2023-05-17T01:18:26.775Z,6.63
2023-05-17T01:20:53.752Z,6.30
2023-05-17T01:23:36.163Z,6.22
2023-05-17T01:26:06.751Z,6.45
2023-05-17T01:28:34.920Z,6.05
2023-05-17T01:31:02.759Z,6.72
2023-05-17T01:33:29.633Z,6.18
2023-05-17T01:35:56.582Z,6.38
2023-05-17T01:38:23.268Z,6.10
2023-05-17T01:40:54.891Z,6.60
2023-05-17T01:43:22.950Z,5.85
2023-05-17T01:45:56.388Z,5.90
2023-05-17T01:48:25.843Z,5.88
2023-05-17T01:50:52.677Z,5.70
2023-05-17T01:53:21.298Z,6.65
2023-05-17T01:55:50.277Z,6.10
2023-05-17T01:58:16.975Z,5.38
2023-05-17T02:00:44.823Z,6.00
2023-05-17T02:03:16.891Z,6.30
2023-05-17T02:05:43.590Z,6.03
2023-05-17T02:08:10.332Z,6.38
2023-05-17T02:10:37.404Z,5.65
2023-05-17T02:13:04.158Z,5.32
2023-05-17T02:15:31.358Z,5.65
2023-05-17T02:17:58.252Z,6.30
2023-05-17T02:20:26.560Z,7.03
2023-05-17T02:22:53.245Z,6.43
2023-05-17T02:25:19.986Z,5.40
2023-05-17T02:27:46.726Z,5.25
2023-05-17T02:30:15.033Z,5.38
2023-05-17T02:32:42.646Z,5.60
2023-05-17T02:35:09.709Z,5.65
2023-05-17T02:37:37.849Z,5.55
2023-05-17T02:40:06.046Z,5.80
2023-05-17T02:42:32.757Z,6.00
2023-05-17T02:44:59.882Z,6.03
2023-05-17T02:47:26.842Z,6.10
2023-05-17T02:49:53.715Z,5.68
2023-05-17T02:52:20.387Z,5.32
2023-05-17T02:54:48.696Z,5.00
2023-05-17T02:57:15.408Z,4.70
2023-05-17T02:59:42.083Z,5.30
2023-05-17T03:02:09.026Z,4.75
2023-05-17T03:04:35.756Z,5.43
2023-05-17T03:07:03.088Z,5.03
2023-05-17T03:09:31.091Z,4.55
2023-05-17T03:11:59.316Z,4.90
2023-05-17T03:14:25.991Z,5.35
2023-05-17T03:16:52.872Z,5.30
2023-05-17T03:19:19.955Z,5.65
2023-05-17T03:21:46.778Z,4.93
2023-05-17T03:24:13.521Z,5.63
2023-05-17T03:26:40.367Z,5.90
2023-05-17T03:29:08.504Z,6.05
2023-05-17T03:31:35.304Z,5.65
2023-05-17T03:34:02.140Z,7.20
2023-05-17T03:36:29.050Z,7.10
2023-05-17T03:38:55.760Z,7.20
2023-05-17T03:41:22.596Z,7.53
2023-05-17T03:43:49.489Z,8.40
2023-05-17T03:46:17.591Z,7.70
2023-05-17T03:48:44.368Z,7.13
2023-05-17T03:51:11.125Z,8.05
2023-05-17T03:53:37.872Z,8.18
2023-05-17T03:56:05.286Z,8.43
2023-05-17T03:58:31.962Z,7.88
2023-05-17T04:00:58.662Z,7.57
2023-05-17T04:03:26.817Z,7.13
2023-05-17T04:05:53.499Z,7.50
2023-05-17T04:08:20.512Z,7.80
2023-05-17T04:10:48.496Z,8.70
2023-05-17T04:13:15.189Z,9.43
2023-05-17T04:15:41.914Z,9.35
2023-05-17T04:18:08.815Z,8.77
2023-05-17T04:20:36.996Z,8.40
2023-05-17T04:23:04.386Z,8.27
2023-05-17T04:25:31.226Z,8.57
2023-05-17T04:27:58.032Z,7.10
2023-05-17T04:30:24.835Z,7.22
2023-05-17T04:32:51.590Z,7.82
2023-05-17T04:35:18.620Z,8.02
2023-05-17T04:37:46.761Z,6.97
2023-05-17T04:40:14.324Z,7.05
2023-05-17T04:42:41.022Z,7.03
2023-05-17T04:45:08.473Z,7.35
2023-05-17T04:47:35.311Z,6.57
2023-05-17T04:50:02.175Z,6.40
2023-05-17T04:52:28.998Z,6.15
2023-05-17T04:54:57.128Z,6.20
2023-05-17T04:57:23.922Z,7.13
2023-05-17T04:59:50.769Z,7.50
2023-05-17T05:02:17.472Z,7.85
2023-05-17T05:04:44.200Z,7.65
2023-05-17T05:07:11.150Z,7.93
2023-05-17T05:10:05.601Z,6.95
2023-05-17T05:12:32.347Z,7.00
2023-05-17T05:15:00.830Z,8.05
2023-05-17T05:17:29.078Z,7.95
2023-05-17T05:19:55.959Z,7.80
2023-05-17T05:22:22.727Z,7.68
2023-05-17T05:24:49.414Z,7.10
2023-05-17T05:27:17.595Z,6.57
2023-05-17T05:29:44.269Z,6.20
2023-05-17T05:32:11.419Z,6.07
2023-05-17T05:34:38.434Z,6.10
2023-05-17T05:37:05.610Z,5.90
2023-05-17T05:39:32.669Z,5.20
2023-05-17T05:41:59.415Z,4.97
2023-05-17T05:44:27.675Z,4.65
2023-05-17T05:46:54.323Z,4.47
2023-05-17T05:49:21.560Z,4.30
2023-05-17T05:51:48.326Z,3.80
2023-05-17T05:54:15.151Z,3.38
2023-05-17T05:56:41.882Z,3.45
2023-05-17T05:59:08.600Z,3.58
2023-05-17T06:01:36.684Z,3.33
2023-05-17T06:04:03.439Z,3.28
2023-05-17T06:06:30.231Z,3.17
2023-05-17T06:08:59.440Z,3.97
2023-05-17T06:11:26.729Z,3.22
2023-05-17T06:13:53.481Z,3.70
2023-05-17T06:16:20.247Z,3.50
2023-05-17T06:18:51.050Z,3.60
2023-05-17T06:21:18.218Z,4.00
2023-05-17T06:23:44.961Z,3.65
2023-05-17T06:26:11.966Z,3.60
2023-05-17T06:28:38.640Z,3.65
2023-05-17T06:31:05.426Z,3.78
2023-05-17T06:33:32.472Z,4.30
2023-05-17T06:38:27.490Z,4.00
2023-05-17T06:40:54.567Z,4.05
2023-05-17T06:43:21.598Z,3.90
2023-05-17T06:45:48.328Z,4.28
2023-05-17T06:48:15.398Z,4.07
2023-05-17T06:50:42.567Z,4.18
2023-05-17T06:53:10.683Z,4.05
2023-05-17T06:55:37.631Z,4.45
2023-05-17T06:58:04.330Z,4.50
2023-05-17T07:00:31.802Z,4.70
2023-05-17T07:02:59.064Z,4.55
2023-05-17T07:05:25.975Z,4.50
2023-05-17T07:07:52.828Z,4.60
2023-05-17T07:10:21.232Z,4.60
2023-05-17T07:12:47.981Z,4.90
2023-05-17T07:15:14.809Z,4.40
2023-05-17T07:17:42.228Z,4.40
2023-05-17T07:20:10.147Z,4.63
2023-05-17T07:22:37.070Z,4.63
2023-05-17T07:25:04.404Z,4.65
2023-05-17T07:27:32.535Z,4.00
2023-05-17T07:30:00.302Z,4.57
2023-05-17T07:32:27.235Z,4.90
2023-05-17T07:34:54.039Z,4.60
2023-05-17T07:37:20.804Z,5.28
2023-05-17T07:39:47.720Z,4.68
2023-05-17T07:42:14.454Z,5.13
2023-05-17T07:44:42.619Z,4.55
2023-05-17T07:47:09.611Z,5.00
2023-05-17T07:49:36.598Z,5.00
2023-05-17T07:52:03.617Z,4.43
2023-05-17T07:54:30.812Z,5.00
2023-05-17T07:56:57.609Z,5.05
2023-05-17T07:59:24.509Z,4.38
2023-05-17T08:01:53.881Z,4.63
2023-05-17T08:04:20.765Z,4.80
2023-05-17T08:06:47.601Z,4.22
2023-05-17T08:09:14.430Z,4.43
2023-05-17T08:11:41.286Z,4.10
2023-05-17T08:14:08.024Z,4.25
2023-05-17T08:16:34.749Z,4.13
2023-05-17T08:19:03.016Z,3.67
2023-05-17T08:21:30.015Z,4.10
2023-05-17T08:23:56.782Z,4.00
2023-05-17T08:26:23.516Z,3.70
2023-05-17T08:28:50.257Z,3.92
2023-05-17T08:31:17.016Z,4.28
2023-05-17T08:33:43.797Z,3.78
2023-05-17T08:36:12.270Z,3.78
2023-05-17T08:38:39.364Z,3.50
2023-05-17T08:41:06.212Z,4.00
2023-05-17T08:43:32.914Z,3.47
2023-05-17T08:45:59.635Z,3.58
2023-05-17T08:48:26.601Z,3.00
2023-05-17T08:50:54.073Z,3.55
2023-05-17T08:53:22.517Z,3.13
2023-05-17T08:55:49.341Z,3.13
2023-05-17T08:58:19.343Z,3.45
2023-05-17T09:00:46.189Z,3.33
2023-05-17T09:03:15.825Z,2.83
2023-05-17T09:05:42.834Z,3.60
2023-05-17T09:08:09.600Z,3.70
2023-05-17T09:10:37.696Z,3.22
2023-05-17T09:13:04.409Z,3.03
2023-05-17T09:15:31.200Z,3.63
2023-05-17T09:17:58.350Z,3.42
2023-05-17T09:20:25.490Z,3.40
2023-05-17T09:22:52.931Z,3.40
2023-05-17T09:25:19.842Z,3.35
2023-05-17T09:27:47.884Z,3.35
2023-05-17T09:30:14.654Z,3.38
2023-05-17T09:32:44.459Z,3.17
2023-05-17T09:35:11.233Z,3.00
2023-05-17T09:37:38.139Z,3.00
2023-05-17T09:40:06.542Z,2.85
2023-05-17T09:42:34.467Z,2.47
2023-05-17T09:45:03.082Z,3.00
2023-05-17T09:47:30.792Z,2.40
2023-05-17T09:49:58.283Z,2.58
2023-05-17T09:52:25.153Z,2.00
2023-05-17T09:54:52.698Z,2.85
2023-05-17T09:57:19.424Z,2.72
2023-05-17T09:59:46.227Z,3.00
2023-05-17T10:02:19.305Z,3.05
2023-05-17T10:04:46.092Z,2.90
2023-05-17T10:07:13.487Z,2.88
2023-05-17T10:09:40.227Z,3.10
2023-05-17T10:12:07.267Z,3.42
2023-05-17T10:14:34.188Z,3.08
2023-05-17T10:17:01.162Z,2.72
2023-05-17T10:19:29.470Z,3.58
2023-05-17T10:21:56.611Z,2.78
2023-05-17T10:24:23.588Z,2.90
2023-05-17T10:26:50.522Z,3.10
2023-05-17T10:29:17.324Z,2.35
2023-05-17T10:31:45.404Z,2.60
2023-05-17T10:34:12.245Z,2.67
2023-05-17T10:36:40.523Z,1.95
2023-05-17T10:39:07.299Z,2.70
2023-05-17T10:41:34.755Z,2.90
2023-05-17T10:44:02.088Z,2.63
2023-05-17T10:46:29.594Z,2.90
2023-05-17T10:48:57.852Z,2.50
2023-05-17T10:51:25.667Z,2.45
2023-05-17T10:54:09.378Z,2.55
2023-05-17T10:56:36.157Z,2.75
2023-05-17T10:59:22.027Z,2.65
2023-05-17T11:01:50.907Z,2.20
2023-05-17T11:04:21.737Z,2.47
2023-05-17T11:06:48.539Z,2.70
2023-05-17T11:09:16.727Z,2.50
2023-05-17T11:12:05.712Z,2.42
2023-05-17T11:14:48.605Z,2.70
2023-05-17T11:17:15.570Z,2.42
2023-05-17T11:19:49.968Z,2.38
2023-05-17T11:22:16.845Z,2.63
2023-05-17T11:24:45.213Z,2.65
2023-05-17T11:27:12.788Z,2.70
2023-05-17T11:29:40.197Z,2.22
2023-05-17T11:32:07.429Z,2.28
2023-05-17T11:34:34.501Z,2.53
2023-05-17T11:37:01.333Z,2.58
2023-05-17T11:39:28.047Z,2.55
2023-05-17T11:41:56.174Z,2.40
2023-05-17T11:44:23.841Z,3.28
2023-05-17T11:46:50.548Z,2.53
2023-05-17T11:49:26.985Z,2.30
2023-05-17T11:52:01.588Z,2.35
2023-05-17T11:54:28.312Z,2.17
2023-05-17T11:56:56.396Z,2.25
2023-05-17T11:59:23.110Z,2.35
2023-05-17T12:01:50.567Z,2.20
2023-05-17T12:04:23.348Z,1.95
2023-05-17T12:06:50.329Z,1.75
2023-05-17T12:09:17.177Z,1.50
2023-05-17T12:11:44.373Z,1.90
2023-05-17T12:14:14.800Z,1.88
2023-05-17T12:16:41.636Z,1.95
2023-05-17T12:19:19.126Z,1.77
2023-05-17T12:21:45.929Z,1.70
2023-05-17T12:24:12.895Z,1.63
2023-05-17T12:26:42.751Z,2.00
2023-05-17T12:29:11.422Z,1.98
2023-05-17T12:31:41.193Z,2.00
2023-05-17T12:34:08.130Z,1.90
2023-05-17T12:36:35.012Z,1.70
2023-05-17T12:39:01.743Z,1.80
2023-05-17T12:41:28.619Z,1.58
2023-05-17T12:44:06.275Z,1.90
2023-05-17T12:49:08.869Z,1.88
2023-05-17T12:51:40.040Z,2.22
2023-05-17T12:54:06.907Z,1.88
2023-05-17T12:56:33.665Z,1.95
2023-05-17T12:59:07.665Z,2.08
2023-05-17T13:01:35.400Z,1.70
2023-05-17T13:04:03.811Z,1.90
2023-05-17T13:06:42.802Z,1.70
2023-05-17T13:09:09.546Z,1.83
2023-05-17T13:11:36.327Z,1.88
2023-05-17T13:14:03.118Z,1.70
2023-05-17T13:16:29.984Z,1.63
2023-05-17T13:18:56.796Z,1.35
2023-05-17T13:21:25.139Z,1.80
2023-05-17T13:23:51.856Z,1.50
2023-05-17T13:26:18.619Z,1.67
2023-05-17T13:28:45.591Z,1.60
2023-05-17T13:31:12.303Z,1.50
2023-05-17T13:33:39.136Z,1.80
2023-05-17T13:36:06.218Z,2.08
2023-05-17T13:38:34.536Z,1.70
2023-05-17T13:41:01.261Z,1.90
2023-05-17T13:43:28.011Z,2.00
2023-05-17T13:45:55.103Z,1.80
2023-05-17T13:48:21.920Z,1.85
2023-05-17T13:50:48.838Z,1.80
2023-05-17T13:53:15.806Z,1.73
2023-05-17T13:55:43.898Z,1.90
2023-05-17T13:58:10.714Z,1.63
2023-05-17T14:00:37.478Z,1.90
2023-05-17T14:03:04.327Z,1.50
2023-05-17T14:05:31.249Z,1.88
2023-05-17T14:07:57.999Z,1.75
2023-05-17T14:10:25.144Z,1.80
2023-05-17T14:12:53.267Z,1.58
2023-05-17T14:15:20.072Z,2.42
2023-05-17T14:17:46.834Z,1.80
2023-05-17T14:20:13.748Z,1.60
2023-05-17T14:22:40.808Z,1.85
2023-05-17T14:25:08.715Z,2.00
2023-05-17T14:27:35.955Z,1.60
2023-05-17T14:30:04.519Z,1.63
2023-05-17T14:32:31.315Z,1.48
2023-05-17T14:34:58.053Z,1.85
2023-05-17T14:37:25.958Z,1.83
2023-05-17T14:40:05.985Z,1.50
2023-05-17T14:42:33.530Z,1.73
2023-05-17T14:45:00.378Z,2.00
2023-05-17T14:47:28.571Z,1.75
2023-05-17T14:49:55.780Z,2.20
2023-05-17T14:52:22.489Z,1.70
2023-05-17T14:54:49.174Z,1.70
2023-05-17T14:57:15.968Z,2.15
2023-05-17T14:59:43.809Z,1.30
2023-05-17T15:02:11.732Z,1.33
2023-05-17T15:04:40.543Z,1.88
2023-05-17T15:07:07.328Z,1.80
2023-05-17T15:09:38.723Z,1.67
2023-05-17T15:12:07.053Z,1.60
2023-05-17T15:14:33.753Z,1.52
2023-05-17T15:17:00.452Z,1.77
2023-05-17T15:19:27.268Z,1.80
2023-05-17T15:21:55.727Z,1.65
2023-05-17T15:24:22.475Z,2.13
2023-05-17T15:26:49.299Z,1.98
2023-05-17T15:29:16.737Z,2.53
2023-05-17T15:31:43.450Z,1.52
2023-05-17T15:34:10.262Z,1.95
2023-05-17T15:36:37.047Z,1.90
2023-05-17T15:39:05.402Z,1.90
2023-05-17T15:41:32.158Z,2.47
2023-05-17T15:43:58.932Z,2.92
2023-05-17T15:46:25.981Z,1.90
2023-05-17T15:48:52.720Z,2.00
2023-05-17T15:51:20.093Z,1.80
2023-05-17T15:53:46.847Z,1.30
2023-05-17T15:56:14.951Z,1.45
2023-05-17T15:58:41.725Z,1.00
2023-05-17T16:01:08.439Z,1.35
2023-05-17T16:03:35.317Z,1.27
2023-05-17T16:06:02.163Z,1.17
2023-05-17T16:08:28.885Z,1.13
2023-05-17T16:10:56.137Z,1.30
2023-05-17T16:13:24.257Z,1.30
2023-05-17T16:15:50.945Z,1.10
2023-05-17T16:18:17.751Z,1.20
2023-05-17T16:20:44.532Z,1.05
2023-05-17T16:23:11.340Z,0.82
2023-05-17T16:25:38.108Z,1.30
2023-05-17T16:28:04.813Z,1.38
2023-05-17T16:30:32.961Z,1.08
2023-05-17T16:32:59.826Z,1.50
2023-05-17T16:35:28.134Z,1.23
2023-05-17T16:37:55.102Z,1.27
2023-05-17T16:40:22.008Z,1.40
2023-05-17T16:42:48.767Z,1.10
2023-05-17T16:45:15.450Z,1.40
2023-05-17T16:47:43.747Z,1.30
2023-05-17T16:50:11.126Z,1.20
2023-05-17T16:52:38.115Z,1.77
2023-05-17T16:55:05.588Z,1.50
2023-05-17T16:57:32.296Z,1.40
2023-05-17T16:59:59.822Z,1.60
2023-05-17T17:02:27.315Z,1.15
2023-05-17T17:04:55.496Z,1.80
2023-05-17T17:07:22.265Z,1.30
2023-05-17T17:09:49.012Z,1.20
2023-05-17T17:12:24.179Z,1.35
2023-05-17T17:14:51.866Z,1.65
2023-05-17T17:17:18.684Z,1.80
2023-05-17T17:19:45.451Z,2.80
2023-05-17T17:22:13.850Z,5.82
2023-05-17T17:24:40.569Z,2.15
2023-05-17T17:27:08.048Z,2.10
2023-05-17T17:29:34.814Z,1.42
2023-05-17T17:32:01.563Z,1.52
2023-05-17T17:34:28.396Z,1.58
2023-05-17T17:36:55.177Z,1.38
2023-05-17T17:39:23.391Z,1.48
2023-05-17T17:41:50.082Z,1.25
2023-05-17T17:44:17.146Z,1.80
2023-05-17T17:46:43.898Z,2.70
2023-05-17T17:49:10.617Z,2.50
2023-05-17T17:51:37.534Z,2.00
2023-05-17T17:54:04.511Z,2.20
2023-05-17T17:56:32.671Z,2.08
2023-05-17T17:58:59.475Z,1.95
2023-05-17T18:01:26.590Z,1.60
2023-05-17T18:03:53.319Z,1.88
2023-05-17T18:06:20.151Z,2.00
2023-05-17T18:08:47.452Z,1.75
2023-05-17T18:11:14.209Z,1.25
2023-05-17T18:13:42.464Z,1.85
2023-05-17T18:16:09.230Z,1.70
2023-05-17T18:18:35.991Z,1.42
2023-05-17T18:21:03.007Z,1.60
2023-05-17T18:23:29.658Z,0.47
2023-05-17T18:25:56.372Z,1.80
2023-05-17T18:28:33.831Z,1.50
2023-05-17T18:31:09.786Z,1.75
2023-05-17T18:33:36.568Z,4.07
2023-05-17T18:36:03.558Z,2.60
2023-05-17T18:38:30.369Z,3.03
2023-05-17T18:40:57.822Z,2.50
2023-05-17T18:43:24.503Z,2.90
2023-05-17T18:45:51.246Z,2.42
2023-05-17T18:48:19.597Z,1.80
2023-05-17T18:50:46.341Z,2.05
2023-05-17T18:53:13.179Z,1.90
2023-05-17T18:55:39.976Z,2.10
2023-05-17T18:58:06.675Z,2.20
2023-05-17T19:00:33.426Z,2.15
2023-05-17T19:03:00.220Z,2.20
2023-05-17T19:05:28.365Z,2.00
2023-05-17T19:07:55.081Z,3.42
2023-05-17T19:10:21.830Z,2.85
2023-05-17T19:12:48.529Z,3.60
2023-05-17T19:15:15.197Z,4.22
2023-05-17T19:17:42.123Z,4.00
2023-05-17T19:20:09.911Z,3.05
2023-05-17T19:22:38.533Z,2.70
2023-05-17T19:25:06.340Z,2.83
2023-05-17T19:27:33.155Z,3.30
2023-05-17T19:29:59.865Z,2.95
2023-05-17T19:32:26.613Z,2.55
2023-05-17T19:34:53.467Z,2.40
2023-05-17T19:37:20.157Z,2.42
2023-05-17T19:39:48.378Z,2.65
2023-05-17T19:42:15.156Z,2.78
2023-05-17T19:44:41.956Z,2.35
2023-05-17T19:47:08.672Z,1.98
2023-05-17T19:49:35.352Z,1.88
2023-05-17T19:52:02.079Z,2.38
2023-05-17T19:54:29.313Z,2.42
2023-05-17T19:56:57.967Z,2.40
2023-05-17T19:59:24.677Z,1.92
2023-05-17T20:01:51.515Z,2.38
2023-05-17T20:04:18.535Z,2.10
2023-05-17T20:06:45.242Z,2.25
2023-05-17T20:09:11.948Z,1.90
2023-05-17T20:11:38.919Z,2.00
2023-05-17T20:14:07.058Z,2.40
2023-05-17T20:16:33.860Z,1.90
2023-05-17T20:19:00.590Z,2.00
2023-05-17T20:21:27.996Z,2.28
2023-05-17T20:23:54.710Z,1.85
2023-05-17T20:26:21.377Z,1.98
2023-05-17T20:28:48.505Z,2.10
2023-05-17T20:31:16.755Z,1.85
2023-05-17T20:33:43.652Z,2.10
2023-05-17T20:36:10.447Z,2.20
2023-05-17T20:38:37.263Z,2.13
2023-05-17T20:41:04.538Z,1.73
2023-05-17T20:43:31.195Z,2.65
2023-05-17T20:45:58.917Z,2.22
2023-05-17T20:48:27.042Z,1.77
2023-05-17T20:50:53.758Z,2.42
2023-05-17T20:53:21.586Z,3.03
2023-05-17T20:55:48.290Z,3.10
2023-05-17T20:58:15.085Z,3.15
2023-05-17T21:00:41.790Z,2.90
2023-05-17T21:03:08.587Z,2.78
2023-05-17T21:05:36.822Z,2.30
2023-05-17T21:08:03.635Z,2.40
2023-05-17T21:10:30.862Z,2.40
2023-05-17T21:12:57.773Z,2.40
2023-05-17T21:15:24.597Z,2.22
2023-05-17T21:17:52.943Z,1.80
2023-05-17T21:20:24.717Z,2.38
2023-05-17T21:22:53.094Z,2.53
2023-05-17T21:25:21.060Z,2.20
2023-05-17T21:27:47.766Z,1.80
2023-05-17T21:30:14.701Z,2.05
2023-05-17T21:32:41.493Z,2.50
2023-05-17T21:35:08.424Z,2.20
2023-05-17T21:37:35.284Z,2.00
2023-05-17T21:40:03.532Z,2.17
2023-05-17T21:42:31.030Z,2.28
2023-05-17T21:44:57.811Z,1.90
2023-05-17T21:47:24.618Z,1.90
2023-05-17T21:49:51.613Z,1.95
2023-05-17T21:52:18.448Z,1.85
2023-05-17T21:54:45.161Z,1.85
2023-05-17T21:57:13.298Z,2.13
2023-05-17T21:59:40.678Z,1.80
2023-05-17T22:02:07.399Z,1.88
2023-05-17T22:04:34.070Z,1.95
2023-05-17T22:07:03.646Z,1.83
2023-05-17T22:09:30.940Z,2.20
2023-05-17T22:11:57.689Z,1.73
2023-05-17T22:14:25.832Z,2.28
2023-05-17T22:16:52.525Z,1.92
2023-05-17T22:19:20.727Z,1.73
2023-05-17T22:21:48.181Z,1.77
2023-05-17T22:24:15.100Z,1.95
2023-05-17T22:26:41.906Z,1.90
2023-05-17T22:29:08.696Z,2.10
2023-05-17T22:31:36.972Z,1.90
2023-05-17T22:34:03.726Z,1.77
2023-05-17T22:36:30.828Z,1.92
2023-05-17T22:38:57.694Z,2.15
2023-05-17T22:41:24.555Z,2.03
2023-05-17T22:43:51.457Z,1.83
2023-05-17T22:46:18.200Z,1.70
2023-05-17T22:48:46.312Z,1.58
2023-05-17T22:51:13.124Z,2.10
2023-05-17T22:53:39.990Z,2.00
2023-05-17T22:56:06.792Z,1.75
2023-05-17T22:58:33.608Z,1.85
2023-05-17T23:01:00.431Z,1.70
2023-05-17T23:03:27.171Z,1.70
2023-05-17T23:05:55.501Z,1.80
2023-05-17T23:08:22.204Z,1.90
2023-05-17T23:10:48.895Z,1.60
2023-05-17T23:13:15.660Z,1.67
2023-05-17T23:15:42.370Z,1.52
2023-05-17T23:18:09.099Z,1.73
2023-05-17T23:20:35.831Z,1.45
2023-05-17T23:23:03.888Z,1.20
2023-05-17T23:25:30.864Z,1.40
2023-05-17T23:27:57.744Z,1.40
2023-05-17T23:30:24.579Z,1.52
2023-05-17T23:32:51.623Z,1.50
2023-05-17T23:35:18.388Z,1.50
2023-05-17T23:37:45.102Z,1.30
2023-05-17T23:40:14.397Z,1.92
2023-05-17T23:42:41.395Z,1.40
2023-05-17T23:45:08.444Z,1.50
2023-05-17T23:47:35.207Z,1.40
2023-05-17T23:50:02.387Z,1.52
2023-05-17T23:52:29.172Z,1.50
2023-05-17T23:54:55.847Z,1.50
2023-05-17T23:57:23.958Z,0.85
2023-05-17T23:59:50.640Z,1.52
